createdAt,value
2023-01-23T00:01:26.352Z,21.6
2023-01-23T00:06:34.724Z,21.6
2023-01-23T00:11:57.240Z,21.6
2023-01-23T00:17:20.792Z,21.6
2023-01-23T00:22:47.288Z,21.6
2023-01-23T00:28:09.254Z,21.6
2023-01-23T00:33:33.237Z,21.6
2023-01-23T00:38:56.769Z,21.6
2023-01-23T00:44:03.149Z,21.6
2023-01-23T00:49:32.440Z,21.5
2023-01-23T00:54:40.001Z,21.5
2023-01-23T01:00:02.040Z,21.5
2023-01-23T01:05:27.067Z,21.5
2023-01-23T01:10:03.902Z,21.5
2023-01-23T01:15:25.541Z,21.5
2023-01-23T01:20:49.508Z,21.5
2023-01-23T01:26:12.618Z,21.5
2023-01-23T01:31:35.808Z,21.5
2023-01-23T01:36:59.463Z,21.5
2023-01-23T01:42:22.467Z,21.5
2023-01-23T01:47:45.456Z,21.5
2023-01-23T01:53:08.914Z,21.5
2023-01-23T01:58:15.784Z,21.5
2023-01-23T02:03:07.418Z,21.5
2023-01-23T02:08:15.306Z,21.5
2023-01-23T02:13:38.723Z,21.5
2023-01-23T02:19:01.420Z,21.5
2023-01-23T02:24:11.677Z,21.5
2023-01-23T02:29:34.843Z,21.5
2023-01-23T02:34:58.145Z,21.5
2023-01-23T02:40:21.799Z,21.4
2023-01-23T02:45:30.005Z,21.5
2023-01-23T02:50:53.566Z,21.5
2023-01-23T02:56:16.090Z,21.4
2023-01-23T03:01:39.817Z,21.5
2023-01-23T03:07:02.716Z,21.4
2023-01-23T03:12:25.520Z,21.4
2023-01-23T03:17:33.152Z,21.5
2023-01-23T03:22:54.218Z,21.5
2023-01-23T03:28:02.332Z,21.5
2023-01-23T03:33:25.993Z,21.5
2023-01-23T03:38:48.446Z,21.5
2023-01-23T03:43:41.021Z,21.4
2023-01-23T03:48:48.621Z,21.5
2023-01-23T03:53:55.721Z,21.5
2023-01-23T03:59:03.222Z,21.5
2023-01-23T04:03:56.233Z,21.5
2023-01-23T04:09:03.038Z,21.4
2023-01-23T04:19:25.594Z,21.4
2023-01-23T04:24:47.575Z,21.5
2023-01-23T04:30:10.328Z,21.5
2023-01-23T04:35:35.076Z,21.5
2023-01-23T04:40:57.919Z,21.5
2023-01-23T04:46:22.286Z,21.5
2023-01-23T04:51:30.684Z,21.5
2023-01-23T04:56:36.913Z,21.5
2023-01-23T05:02:00.867Z,21.5
2023-01-23T05:07:24.963Z,21.5
2023-01-23T05:12:50.134Z,21.5
2023-01-23T05:17:58.170Z,21.5
2023-01-23T05:23:06.543Z,21.5
2023-01-23T05:28:13.152Z,21.5
2023-01-23T05:33:36.658Z,21.5
2023-01-23T05:38:47.815Z,21.5
2023-01-23T05:44:11.620Z,21.5
2023-01-23T05:49:04.088Z,21.5
2023-01-23T05:54:28.268Z,21.5
2023-01-23T05:59:38.084Z,21.5
2023-01-23T06:09:54.059Z,21.5
2023-01-23T06:15:01.215Z,21.5
2023-01-23T06:20:11.476Z,21.5
2023-01-23T06:25:35.807Z,21.5
2023-01-23T06:30:58.653Z,21.5
2023-01-23T06:36:25.792Z,21.5
2023-01-23T06:41:36.499Z,21.5
2023-01-23T06:46:59.895Z,21.5
2023-01-23T06:52:23.144Z,21.5
2023-01-23T06:57:47.209Z,21.5
2023-01-23T07:03:10.265Z,21.5
2023-01-23T07:08:33.126Z,21.5
2023-01-23T07:13:57.088Z,21.5
2023-01-23T07:19:22.351Z,21.3
2023-01-23T07:24:29.227Z,21
2023-01-23T07:29:53.276Z,20.8
2023-01-23T07:35:17.906Z,20.6
2023-01-23T07:40:40.998Z,20.5
2023-01-23T07:46:04.727Z,20.3
2023-01-23T07:51:28.653Z,20.1
2023-01-23T07:56:54.010Z,19.8
2023-01-23T08:02:23.337Z,19.6
2023-01-23T08:07:30.342Z,19.4
2023-01-23T08:13:02.587Z,19.3
2023-01-23T08:18:11.100Z,19.2
2023-01-23T08:23:33.543Z,19.1
2023-01-23T08:28:40.588Z,19.1
2023-01-23T08:33:49.611Z,19
2023-01-23T08:39:13.041Z,18.9
2023-01-23T08:44:36.470Z,18.9
2023-01-23T08:50:01.240Z,18.8
2023-01-23T08:55:24.686Z,18.8
2023-01-23T09:00:49.385Z,18.8
2023-01-23T09:16:29.812Z,18.6
2023-01-23T09:21:54.046Z,18.6
2023-01-23T09:27:17.561Z,18.6
2023-01-23T09:32:41.469Z,18.5
2023-01-23T09:38:21.302Z,18.5
2023-01-23T09:43:30.890Z,18.5
2023-01-23T09:48:54.562Z,18.4
2023-01-23T09:54:03.110Z,18.4
2023-01-23T09:59:10.657Z,18.4
2023-01-23T10:04:50.100Z,18.4
2023-01-23T10:10:16.906Z,18.4
2023-01-23T10:15:42.638Z,18.4
2023-01-23T10:21:25.255Z,18.4
2023-01-23T10:26:58.414Z,18.4
2023-01-23T10:32:21.390Z,18.5
2023-01-23T10:37:59.849Z,18.6
2023-01-23T10:43:25.976Z,18.8
2023-01-23T10:49:05.860Z,18.9
2023-01-23T10:54:47.815Z,19.1
2023-01-23T11:00:13.884Z,19.4
2023-01-23T11:05:28.859Z,19.8
2023-01-23T11:10:59.462Z,20.1
2023-01-23T11:16:25.901Z,20.6
2023-01-23T11:21:48.639Z,21.1
2023-01-23T11:27:25.808Z,21.6
2023-01-23T11:32:53.180Z,22.1
2023-01-23T11:38:17.942Z,22.6
2023-01-23T11:43:46.572Z,23.2
2023-01-23T11:49:19.948Z,23.8
2023-01-23T11:54:48.123Z,24.4
2023-01-23T12:00:02.419Z,24.9
2023-01-23T12:05:46.459Z,25.5
2023-01-23T12:11:24.895Z,26
2023-01-23T12:16:49.002Z,26.6
2023-01-23T12:21:57.304Z,27
2023-01-23T12:27:21.841Z,27.4
2023-01-23T12:32:45.604Z,27.9
2023-01-23T12:38:37.061Z,28.3
2023-01-23T12:44:01.128Z,28.6
2023-01-23T12:49:24.728Z,28.8
2023-01-23T12:54:49.817Z,28.9
2023-01-23T13:00:38.222Z,29
2023-01-23T13:06:15.317Z,29.1
2023-01-23T13:11:59.718Z,29.1
2023-01-23T13:17:53.689Z,29.2
2023-01-23T13:23:22.527Z,29.3
2023-01-23T13:29:00.675Z,29.3
2023-01-23T13:34:32.334Z,29.3
2023-01-23T13:40:05.497Z,29.3
2023-01-23T13:45:39.215Z,29.3
2023-01-23T13:50:47.321Z,29.4
2023-01-23T13:56:10.838Z,29.4
2023-01-23T14:01:34.677Z,29.4
2023-01-23T14:06:57.030Z,29.4
2023-01-23T14:12:20.511Z,29.4
2023-01-23T14:17:44.825Z,29.4
2023-01-23T14:23:20.703Z,29.4
2023-01-23T14:29:00.747Z,29.4
2023-01-23T14:34:35.185Z,29.4
2023-01-23T14:39:44.083Z,29.3
2023-01-23T14:45:50.036Z,29.3
2023-01-23T14:51:29.183Z,29.3
2023-01-23T14:57:12.164Z,29.3
2023-01-23T15:02:46.404Z,29.3
2023-01-23T15:08:11.070Z,29.3
2023-01-23T15:13:34.096Z,29.3
2023-01-23T15:18:57.943Z,29.3
2023-01-23T15:24:22.456Z,29.3
2023-01-23T15:29:57.484Z,29.2
2023-01-23T15:35:22.707Z,29.2
2023-01-23T15:40:47.289Z,28.8
2023-01-23T15:46:24.861Z,27.4
2023-01-23T15:51:55.806Z,26
2023-01-23T15:57:33.271Z,24.6
2023-01-23T16:03:13.088Z,23.7
2023-01-23T16:08:36.777Z,22.9
2023-01-23T16:14:08.743Z,22.4
2023-01-23T16:19:28.945Z,22
2023-01-23T16:25:38.116Z,21.7
2023-01-23T16:31:07.942Z,21.3
2023-01-23T16:36:31.865Z,21.1
2023-01-23T16:41:55.692Z,20.8
2023-01-23T16:47:20.126Z,20.6
2023-01-23T16:53:00.138Z,20.4
2023-01-23T16:58:36.694Z,20.3
2023-01-23T17:04:15.552Z,20.2
2023-01-23T17:09:39.129Z,20.1
2023-01-23T17:14:45.978Z,20
2023-01-23T17:19:37.408Z,19.9
2023-01-23T17:25:01.112Z,19.8
2023-01-23T17:30:47.055Z,19.7
2023-01-23T17:36:17.741Z,19.6
2023-01-23T17:41:41.203Z,19.6
2023-01-23T17:47:06.511Z,19.5
2023-01-23T17:52:14.993Z,19.5
2023-01-23T17:57:40.536Z,19.4
2023-01-23T18:03:06.269Z,19.4
2023-01-23T18:08:26.559Z,19.4
2023-01-23T18:13:52.489Z,19.4
2023-01-23T18:19:24.408Z,19.4
2023-01-23T18:24:38.238Z,19.4
2023-01-23T18:29:33.976Z,19.4
2023-01-23T18:34:34.825Z,19.4
2023-01-23T18:39:53.594Z,19.3
2023-01-23T18:45:10.160Z,19.3
2023-01-23T18:51:16.250Z,19.3
2023-01-23T18:56:51.818Z,19.2
2023-01-23T19:02:45.277Z,19.2
2023-01-23T19:08:24.839Z,19.2
2023-01-23T19:13:55.988Z,19.1
2023-01-23T19:19:51.934Z,19.1
2023-01-23T19:25:29.130Z,19.1
2023-01-23T19:31:21.543Z,19.1
2023-01-23T19:36:58.957Z,19.1
2023-01-23T19:42:41.724Z,19
2023-01-23T19:48:37.221Z,19
2023-01-23T19:54:15.795Z,19
2023-01-23T19:59:06.832Z,19
2023-01-23T20:04:25.496Z,19
2023-01-23T20:09:38.819Z,19
2023-01-23T20:15:08.913Z,18.9
2023-01-23T20:20:38.916Z,18.9
2023-01-23T20:26:09.314Z,19
2023-01-23T20:31:40.569Z,19
2023-01-23T20:36:52.929Z,19.4
2023-01-23T20:42:18.282Z,19.9
2023-01-23T20:47:44.062Z,20.7
2023-01-23T20:53:08.852Z,21.4
2023-01-23T20:58:36.842Z,22.2
2023-01-23T21:03:48.171Z,22.9
2023-01-23T21:08:26.363Z,23.7
2023-01-23T21:13:34.675Z,24.3
2023-01-23T21:18:59.164Z,24.9
2023-01-23T21:24:24.748Z,25.4
2023-01-23T21:29:47.381Z,25.7
2023-01-23T21:35:10.284Z,25.9
2023-01-23T21:40:19.047Z,26
2023-01-23T21:45:41.808Z,26.1
2023-01-23T21:51:04.289Z,26.2
2023-01-23T21:55:57.438Z,26.2
2023-01-23T22:01:19.918Z,26.3
2023-01-23T22:06:43.959Z,26.3
2023-01-23T22:12:08.239Z,26.3
2023-01-23T22:17:52.489Z,26.3
2023-01-23T22:23:16.021Z,26.3
2023-01-23T22:28:40.089Z,26.3
2023-01-23T22:34:13.493Z,26.3
2023-01-23T22:39:36.434Z,26.4
2023-01-23T22:45:00.772Z,26.4
2023-01-23T22:50:24.354Z,26.4
2023-01-23T22:55:49.832Z,26.4
2023-01-23T23:00:58.469Z,26.4
2023-01-23T23:06:22.146Z,26.3
2023-01-23T23:11:13.731Z,26.3
2023-01-23T23:16:06.296Z,26.3
2023-01-23T23:21:13.961Z,26.3
2023-01-23T23:26:36.816Z,26.3
2023-01-23T23:31:29.474Z,26.3
2023-01-23T23:36:53.257Z,26.3
2023-01-23T23:42:16.192Z,26.3
2023-01-23T23:47:39.968Z,26.3
2023-01-23T23:53:02.922Z,26.3
2023-01-23T23:58:10.284Z,26.3
